sensor_id;sensor_type;location;lat;lon;timestamp;temperature;humidity
33271;DHT22;53180;51.344;6.152;2022-11-15T00:01:23;8.80;86.50
33271;DHT22;53180;51.344;6.152;2022-11-15T00:03:51;8.80;86.70
33271;DHT22;53180;51.344;6.152;2022-11-15T00:06:19;8.80;86.60
33271;DHT22;53180;51.344;6.152;2022-11-15T00:08:48;8.90;86.80
33271;DHT22;53180;51.344;6.152;2022-11-15T00:11:16;9.00;87.10
33271;DHT22;53180;51.344;6.152;2022-11-15T00:13:46;9.00;87.20
33271;DHT22;53180;51.344;6.152;2022-11-15T00:16:14;9.20;87.60
33271;DHT22;53180;51.344;6.152;2022-11-15T00:18:43;9.20;87.50
33271;DHT22;53180;51.344;6.152;2022-11-15T00:21:17;9.30;87.50
33271;DHT22;53180;51.344;6.152;2022-11-15T00:23:45;9.40;87.60
33271;DHT22;53180;51.344;6.152;2022-11-15T00:26:15;9.50;87.40
33271;DHT22;53180;51.344;6.152;2022-11-15T00:28:43;9.50;87.40
33271;DHT22;53180;51.344;6.152;2022-11-15T00:31:13;9.50;87.30
33271;DHT22;53180;51.344;6.152;2022-11-15T00:33:43;9.50;87.20
33271;DHT22;53180;51.344;6.152;2022-11-15T00:36:12;9.60;87.20
33271;DHT22;53180;51.344;6.152;2022-11-15T00:38:40;9.60;87.10
33271;DHT22;53180;51.344;6.152;2022-11-15T00:41:08;9.60;87.10
33271;DHT22;53180;51.344;6.152;2022-11-15T00:43:37;9.60;87.10
33271;DHT22;53180;51.344;6.152;2022-11-15T00:46:06;9.60;86.90
33271;DHT22;53180;51.344;6.152;2022-11-15T00:48:37;9.50;86.70
33271;DHT22;53180;51.344;6.152;2022-11-15T00:51:06;9.50;86.70
33271;DHT22;53180;51.344;6.152;2022-11-15T00:53:34;9.50;86.70
33271;DHT22;53180;51.344;6.152;2022-11-15T00:56:03;9.50;86.80
33271;DHT22;53180;51.344;6.152;2022-11-15T00:58:31;9.50;86.70
33271;DHT22;53180;51.344;6.152;2022-11-15T01:01:06;9.50;86.70
33271;DHT22;53180;51.344;6.152;2022-11-15T01:03:38;9.50;86.80
33271;DHT22;53180;51.344;6.152;2022-11-15T01:06:07;9.50;86.80
33271;DHT22;53180;51.344;6.152;2022-11-15T01:08:36;9.50;87.00
33271;DHT22;53180;51.344;6.152;2022-11-15T01:11:08;9.50;87.10
33271;DHT22;53180;51.344;6.152;2022-11-15T01:13:39;9.60;87.20
33271;DHT22;53180;51.344;6.152;2022-11-15T01:16:11;9.60;87.20
33271;DHT22;53180;51.344;6.152;2022-11-15T01:18:42;9.60;87.30
33271;DHT22;53180;51.344;6.152;2022-11-15T01:21:13;9.60;87.40
33271;DHT22;53180;51.344;6.152;2022-11-15T01:23:42;9.70;87.50
33271;DHT22;53180;51.344;6.152;2022-11-15T01:26:14;9.70;87.60
33271;DHT22;53180;51.344;6.152;2022-11-15T01:28:43;9.70;87.70
33271;DHT22;53180;51.344;6.152;2022-11-15T01:31:13;9.80;87.80
33271;DHT22;53180;51.344;6.152;2022-11-15T01:33:46;9.80;87.90
33271;DHT22;53180;51.344;6.152;2022-11-15T01:36:16;9.80;87.80
33271;DHT22;53180;51.344;6.152;2022-11-15T01:38:53;9.80;87.80
33271;DHT22;53180;51.344;6.152;2022-11-15T01:41:24;9.90;87.80
33271;DHT22;53180;51.344;6.152;2022-11-15T01:43:56;9.90;87.90
33271;DHT22;53180;51.344;6.152;2022-11-15T01:46:29;9.90;87.90
33271;DHT22;53180;51.344;6.152;2022-11-15T01:49:03;9.90;87.80
33271;DHT22;53180;51.344;6.152;2022-11-15T01:51:36;9.90;87.80
33271;DHT22;53180;51.344;6.152;2022-11-15T01:54:07;9.90;87.70
33271;DHT22;53180;51.344;6.152;2022-11-15T01:56:43;10.00;87.70
33271;DHT22;53180;51.344;6.152;2022-11-15T01:59:15;10.00;87.70
33271;DHT22;53180;51.344;6.152;2022-11-15T02:01:43;10.00;87.70
33271;DHT22;53180;51.344;6.152;2022-11-15T02:04:16;10.00;87.90
33271;DHT22;53180;51.344;6.152;2022-11-15T02:06:48;10.10;87.90
33271;DHT22;53180;51.344;6.152;2022-11-15T02:09:18;10.10;88.00
33271;DHT22;53180;51.344;6.152;2022-11-15T02:11:47;10.10;88.10
33271;DHT22;53180;51.344;6.152;2022-11-15T02:14:19;10.10;88.00
33271;DHT22;53180;51.344;6.152;2022-11-15T02:16:52;10.10;88.10
33271;DHT22;53180;51.344;6.152;2022-11-15T02:23:38;10.20;88.20
33271;DHT22;53180;51.344;6.152;2022-11-15T02:32:45;10.30;88.20
33271;DHT22;53180;51.344;6.152;2022-11-15T02:35:25;10.30;88.30
33271;DHT22;53180;51.344;6.152;2022-11-15T02:38:01;10.30;88.30
33271;DHT22;53180;51.344;6.152;2022-11-15T02:40:41;10.30;88.40
33271;DHT22;53180;51.344;6.152;2022-11-15T02:43:18;10.40;88.40
33271;DHT22;53180;51.344;6.152;2022-11-15T02:46:21;10.40;88.40
33271;DHT22;53180;51.344;6.152;2022-11-15T02:49:14;10.50;88.70
33271;DHT22;53180;51.344;6.152;2022-11-15T02:51:44;10.50;88.60
33271;DHT22;53180;51.344;6.152;2022-11-15T02:54:20;10.60;88.50
33271;DHT22;53180;51.344;6.152;2022-11-15T02:56:53;10.60;88.60
33271;DHT22;53180;51.344;6.152;2022-11-15T03:02:41;10.60;88.30
33271;DHT22;53180;51.344;6.152;2022-11-15T03:05:19;10.60;88.20
33271;DHT22;53180;51.344;6.152;2022-11-15T03:07:56;10.70;88.20
33271;DHT22;53180;51.344;6.152;2022-11-15T03:10:40;10.70;88.30
33271;DHT22;53180;51.344;6.152;2022-11-15T03:13:19;10.70;88.40
33271;DHT22;53180;51.344;6.152;2022-11-15T03:15:54;10.80;88.40
33271;DHT22;53180;51.344;6.152;2022-11-15T03:18:32;10.80;88.40
33271;DHT22;53180;51.344;6.152;2022-11-15T03:21:05;10.80;88.60
33271;DHT22;53180;51.344;6.152;2022-11-15T03:23:36;10.80;88.90
33271;DHT22;53180;51.344;6.152;2022-11-15T03:26:07;10.90;89.00
33271;DHT22;53180;51.344;6.152;2022-11-15T03:28:40;10.90;89.40
33271;DHT22;53180;51.344;6.152;2022-11-15T03:31:12;10.90;89.60
33271;DHT22;53180;51.344;6.152;2022-11-15T03:34:04;10.90;90.00
33271;DHT22;53180;51.344;6.152;2022-11-15T03:36:34;10.90;90.40
33271;DHT22;53180;51.344;6.152;2022-11-15T03:39:06;10.90;90.90
33271;DHT22;53180;51.344;6.152;2022-11-15T03:41:39;10.90;91.00
33271;DHT22;53180;51.344;6.152;2022-11-15T03:44:17;10.90;91.10
33271;DHT22;53180;51.344;6.152;2022-11-15T03:46:55;11.00;91.20
33271;DHT22;53180;51.344;6.152;2022-11-15T03:49:30;10.90;91.00
33271;DHT22;53180;51.344;6.152;2022-11-15T03:52:02;10.90;91.10
33271;DHT22;53180;51.344;6.152;2022-11-15T03:54:32;10.90;91.10
33271;DHT22;53180;51.344;6.152;2022-11-15T03:57:00;11.00;91.20
33271;DHT22;53180;51.344;6.152;2022-11-15T03:59:28;10.90;91.20
33271;DHT22;53180;51.344;6.152;2022-11-15T04:01:56;10.90;91.20
33271;DHT22;53180;51.344;6.152;2022-11-15T04:04:25;10.90;91.30
33271;DHT22;53180;51.344;6.152;2022-11-15T04:06:55;11.00;91.40
33271;DHT22;53180;51.344;6.152;2022-11-15T04:09:23;11.00;91.30
33271;DHT22;53180;51.344;6.152;2022-11-15T04:11:51;10.90;91.60
33271;DHT22;53180;51.344;6.152;2022-11-15T04:14:20;10.90;91.70
33271;DHT22;53180;51.344;6.152;2022-11-15T04:16:48;11.00;91.70
33271;DHT22;53180;51.344;6.152;2022-11-15T04:19:16;11.00;91.80
33271;DHT22;53180;51.344;6.152;2022-11-15T04:22:03;11.00;92.00
33271;DHT22;53180;51.344;6.152;2022-11-15T04:24:49;11.00;92.00
33271;DHT22;53180;51.344;6.152;2022-11-15T04:27:17;11.00;91.90
33271;DHT22;53180;51.344;6.152;2022-11-15T04:29:46;11.00;92.00
33271;DHT22;53180;51.344;6.152;2022-11-15T04:32:14;11.00;92.00
33271;DHT22;53180;51.344;6.152;2022-11-15T04:34:42;11.00;91.90
33271;DHT22;53180;51.344;6.152;2022-11-15T04:37:12;11.00;92.00
33271;DHT22;53180;51.344;6.152;2022-11-15T04:39:40;11.00;91.90
33271;DHT22;53180;51.344;6.152;2022-11-15T04:42:09;11.00;92.00
33271;DHT22;53180;51.344;6.152;2022-11-15T04:44:37;11.00;92.00
33271;DHT22;53180;51.344;6.152;2022-11-15T04:47:06;11.00;91.90
33271;DHT22;53180;51.344;6.152;2022-11-15T04:49:34;11.00;91.80
33271;DHT22;53180;51.344;6.152;2022-11-15T04:52:02;11.00;91.80
33271;DHT22;53180;51.344;6.152;2022-11-15T04:54:32;11.10;92.00
33271;DHT22;53180;51.344;6.152;2022-11-15T04:57:01;11.10;92.00
33271;DHT22;53180;51.344;6.152;2022-11-15T04:59:29;11.10;92.00
33271;DHT22;53180;51.344;6.152;2022-11-15T05:01:57;11.10;92.00
33271;DHT22;53180;51.344;6.152;2022-11-15T05:04:25;11.10;91.90
33271;DHT22;53180;51.344;6.152;2022-11-15T05:06:53;11.10;91.90
33271;DHT22;53180;51.344;6.152;2022-11-15T05:09:22;11.10;92.00
33271;DHT22;53180;51.344;6.152;2022-11-15T05:11:51;11.20;92.00
33271;DHT22;53180;51.344;6.152;2022-11-15T05:14:20;11.20;91.90
33271;DHT22;53180;51.344;6.152;2022-11-15T05:16:49;11.20;92.00
33271;DHT22;53180;51.344;6.152;2022-11-15T05:19:17;11.20;91.90
33271;DHT22;53180;51.344;6.152;2022-11-15T05:21:46;11.20;92.00
33271;DHT22;53180;51.344;6.152;2022-11-15T05:24:14;11.20;91.90
33271;DHT22;53180;51.344;6.152;2022-11-15T05:26:43;11.20;91.90
33271;DHT22;53180;51.344;6.152;2022-11-15T05:29:12;11.20;91.80
33271;DHT22;53180;51.344;6.152;2022-11-15T05:31:41;11.20;91.80
33271;DHT22;53180;51.344;6.152;2022-11-15T05:34:10;11.20;91.80
33271;DHT22;53180;51.344;6.152;2022-11-15T05:36:40;11.20;91.70
33271;DHT22;53180;51.344;6.152;2022-11-15T05:39:11;11.20;91.70
33271;DHT22;53180;51.344;6.152;2022-11-15T05:41:43;11.20;91.60
33271;DHT22;53180;51.344;6.152;2022-11-15T05:44:15;11.20;91.60
33271;DHT22;53180;51.344;6.152;2022-11-15T05:46:46;11.20;91.60
33271;DHT22;53180;51.344;6.152;2022-11-15T05:49:18;11.20;91.50
33271;DHT22;53180;51.344;6.152;2022-11-15T05:51:48;11.20;91.60
33271;DHT22;53180;51.344;6.152;2022-11-15T05:54:17;11.20;91.50
33271;DHT22;53180;51.344;6.152;2022-11-15T05:56:48;11.20;91.60
33271;DHT22;53180;51.344;6.152;2022-11-15T05:59:19;11.20;91.60
33271;DHT22;53180;51.344;6.152;2022-11-15T06:01:48;11.20;91.60
33271;DHT22;53180;51.344;6.152;2022-11-15T06:04:16;11.20;91.60
33271;DHT22;53180;51.344;6.152;2022-11-15T06:06:44;11.20;91.60
33271;DHT22;53180;51.344;6.152;2022-11-15T06:09:13;11.20;91.60
33271;DHT22;53180;51.344;6.152;2022-11-15T06:11:41;11.20;91.60
33271;DHT22;53180;51.344;6.152;2022-11-15T06:14:09;11.30;91.60
33271;DHT22;53180;51.344;6.152;2022-11-15T06:16:39;11.30;91.60
33271;DHT22;53180;51.344;6.152;2022-11-15T06:19:07;11.30;91.60
33271;DHT22;53180;51.344;6.152;2022-11-15T06:21:36;11.30;91.60
33271;DHT22;53180;51.344;6.152;2022-11-15T06:24:05;11.30;91.70
33271;DHT22;53180;51.344;6.152;2022-11-15T06:26:34;11.30;91.60
33271;DHT22;53180;51.344;6.152;2022-11-15T06:29:02;11.30;91.70
33271;DHT22;53180;51.344;6.152;2022-11-15T06:31:31;11.30;91.60
33271;DHT22;53180;51.344;6.152;2022-11-15T06:34:02;11.30;91.70
33271;DHT22;53180;51.344;6.152;2022-11-15T06:36:30;11.30;91.70
33271;DHT22;53180;51.344;6.152;2022-11-15T06:38:59;11.30;91.60
33271;DHT22;53180;51.344;6.152;2022-11-15T06:41:27;11.40;91.60
33271;DHT22;53180;51.344;6.152;2022-11-15T06:43:56;11.40;91.70
33271;DHT22;53180;51.344;6.152;2022-11-15T06:46:25;11.40;91.80
33271;DHT22;53180;51.344;6.152;2022-11-15T06:48:54;11.40;92.00
33271;DHT22;53180;51.344;6.152;2022-11-15T06:51:24;11.40;92.20
33271;DHT22;53180;51.344;6.152;2022-11-15T06:53:52;11.40;92.40
33271;DHT22;53180;51.344;6.152;2022-11-15T06:56:20;11.30;92.30
33271;DHT22;53180;51.344;6.152;2022-11-15T06:58:49;11.40;92.30
33271;DHT22;53180;51.344;6.152;2022-11-15T07:01:17;11.40;92.20
33271;DHT22;53180;51.344;6.152;2022-11-15T07:03:45;11.30;91.90
33271;DHT22;53180;51.344;6.152;2022-11-15T07:06:13;11.30;91.80
33271;DHT22;53180;51.344;6.152;2022-11-15T07:08:43;11.30;91.80
33271;DHT22;53180;51.344;6.152;2022-11-15T07:11:12;11.30;91.70
33271;DHT22;53180;51.344;6.152;2022-11-15T07:13:41;11.30;91.60
33271;DHT22;53180;51.344;6.152;2022-11-15T07:16:10;11.30;91.70
33271;DHT22;53180;51.344;6.152;2022-11-15T07:18:39;11.30;91.70
33271;DHT22;53180;51.344;6.152;2022-11-15T07:21:09;11.20;91.70
33271;DHT22;53180;51.344;6.152;2022-11-15T07:23:39;11.20;91.60
33271;DHT22;53180;51.344;6.152;2022-11-15T07:26:09;11.20;91.60
33271;DHT22;53180;51.344;6.152;2022-11-15T07:28:37;11.20;91.60
33271;DHT22;53180;51.344;6.152;2022-11-15T07:31:07;11.20;91.50
33271;DHT22;53180;51.344;6.152;2022-11-15T07:33:36;11.10;91.50
33271;DHT22;53180;51.344;6.152;2022-11-15T07:36:06;11.10;91.40
33271;DHT22;53180;51.344;6.152;2022-11-15T07:38:35;11.10;91.40
33271;DHT22;53180;51.344;6.152;2022-11-15T07:41:10;11.00;91.40
33271;DHT22;53180;51.344;6.152;2022-11-15T07:43:38;11.00;91.30
33271;DHT22;53180;51.344;6.152;2022-11-15T07:46:08;11.00;91.30
33271;DHT22;53180;51.344;6.152;2022-11-15T07:48:37;11.00;91.30
33271;DHT22;53180;51.344;6.152;2022-11-15T07:51:12;10.90;91.30
33271;DHT22;53180;51.344;6.152;2022-11-15T07:53:41;11.00;91.30
33271;DHT22;53180;51.344;6.152;2022-11-15T07:56:11;11.00;91.30
33271;DHT22;53180;51.344;6.152;2022-11-15T07:58:40;10.90;91.30
33271;DHT22;53180;51.344;6.152;2022-11-15T08:01:09;11.00;91.20
33271;DHT22;53180;51.344;6.152;2022-11-15T08:03:38;11.00;91.20
33271;DHT22;53180;51.344;6.152;2022-11-15T08:06:07;10.90;91.20
33271;DHT22;53180;51.344;6.152;2022-11-15T08:08:35;11.00;91.20
33271;DHT22;53180;51.344;6.152;2022-11-15T08:11:03;11.00;91.30
33271;DHT22;53180;51.344;6.152;2022-11-15T08:13:33;11.00;91.30
33271;DHT22;53180;51.344;6.152;2022-11-15T08:16:02;11.00;91.10
33271;DHT22;53180;51.344;6.152;2022-11-15T08:18:32;11.00;91.00
33271;DHT22;53180;51.344;6.152;2022-11-15T08:21:01;11.00;91.00
33271;DHT22;53180;51.344;6.152;2022-11-15T08:23:30;11.00;91.00
33271;DHT22;53180;51.344;6.152;2022-11-15T08:26:00;11.00;90.90
33271;DHT22;53180;51.344;6.152;2022-11-15T08:28:30;11.00;91.00
33271;DHT22;53180;51.344;6.152;2022-11-15T08:31:00;11.00;90.80
33271;DHT22;53180;51.344;6.152;2022-11-15T08:33:29;11.10;90.50
33271;DHT22;53180;51.344;6.152;2022-11-15T08:35:59;11.00;90.50
33271;DHT22;53180;51.344;6.152;2022-11-15T08:38:28;11.10;90.40
33271;DHT22;53180;51.344;6.152;2022-11-15T08:41:01;11.10;90.40
33271;DHT22;53180;51.344;6.152;2022-11-15T08:43:31;11.10;90.30
33271;DHT22;53180;51.344;6.152;2022-11-15T08:46:01;11.20;90.20
33271;DHT22;53180;51.344;6.152;2022-11-15T08:48:29;11.20;89.90
33271;DHT22;53180;51.344;6.152;2022-11-15T08:50:58;11.20;90.00
33271;DHT22;53180;51.344;6.152;2022-11-15T08:53:27;11.20;89.80
33271;DHT22;53180;51.344;6.152;2022-11-15T08:55:55;11.20;89.40
33271;DHT22;53180;51.344;6.152;2022-11-15T08:58:23;11.30;89.50
33271;DHT22;53180;51.344;6.152;2022-11-15T09:00:52;11.30;89.40
33271;DHT22;53180;51.344;6.152;2022-11-15T09:03:21;11.40;89.30
33271;DHT22;53180;51.344;6.152;2022-11-15T09:05:54;11.50;88.80
33271;DHT22;53180;51.344;6.152;2022-11-15T09:08:24;11.70;88.30
33271;DHT22;53180;51.344;6.152;2022-11-15T09:11:12;11.70;87.90
33271;DHT22;53180;51.344;6.152;2022-11-15T09:13:41;11.90;87.60
33271;DHT22;53180;51.344;6.152;2022-11-15T09:16:09;12.00;86.80
33271;DHT22;53180;51.344;6.152;2022-11-15T09:18:41;12.00;85.50
33271;DHT22;53180;51.344;6.152;2022-11-15T09:21:10;12.00;85.20
33271;DHT22;53180;51.344;6.152;2022-11-15T09:23:38;12.00;84.40
33271;DHT22;53180;51.344;6.152;2022-11-15T09:26:07;12.10;83.50
33271;DHT22;53180;51.344;6.152;2022-11-15T09:28:36;12.10;82.90
33271;DHT22;53180;51.344;6.152;2022-11-15T09:31:05;12.10;82.90
33271;DHT22;53180;51.344;6.152;2022-11-15T09:33:34;12.20;81.50
33271;DHT22;53180;51.344;6.152;2022-11-15T09:36:06;12.10;81.90
33271;DHT22;53180;51.344;6.152;2022-11-15T09:38:35;12.20;80.60
33271;DHT22;53180;51.344;6.152;2022-11-15T09:44:42;12.20;81.20
33271;DHT22;53180;51.344;6.152;2022-11-15T09:50:34;12.30;78.90
33271;DHT22;53180;51.344;6.152;2022-11-15T09:53:10;12.30;77.30
33271;DHT22;53180;51.344;6.152;2022-11-15T09:55:46;12.40;76.80
33271;DHT22;53180;51.344;6.152;2022-11-15T09:58:23;12.50;77.10
33271;DHT22;53180;51.344;6.152;2022-11-15T10:00:56;12.80;76.70
33271;DHT22;53180;51.344;6.152;2022-11-15T10:03:28;12.90;74.20
33271;DHT22;53180;51.344;6.152;2022-11-15T10:06:02;13.00;74.70
33271;DHT22;53180;51.344;6.152;2022-11-15T10:08:43;13.10;74.40
33271;DHT22;53180;51.344;6.152;2022-11-15T10:11:20;13.30;74.50
33271;DHT22;53180;51.344;6.152;2022-11-15T10:14:11;13.30;72.40
33271;DHT22;53180;51.344;6.152;2022-11-15T10:17:14;13.30;72.70
33271;DHT22;53180;51.344;6.152;2022-11-15T10:20:02;13.30;71.30
33271;DHT22;53180;51.344;6.152;2022-11-15T10:22:38;13.30;71.40
33271;DHT22;53180;51.344;6.152;2022-11-15T10:25:21;13.40;71.80
33271;DHT22;53180;51.344;6.152;2022-11-15T10:27:54;13.50;71.40
33271;DHT22;53180;51.344;6.152;2022-11-15T10:30:31;13.50;70.90
33271;DHT22;53180;51.344;6.152;2022-11-15T10:33:16;13.60;71.20
33271;DHT22;53180;51.344;6.152;2022-11-15T10:35:47;13.80;71.30
33271;DHT22;53180;51.344;6.152;2022-11-15T10:38:19;13.90;70.10
33271;DHT22;53180;51.344;6.152;2022-11-15T10:40:48;13.90;69.60
33271;DHT22;53180;51.344;6.152;2022-11-15T10:43:34;14.00;69.40
33271;DHT22;53180;51.344;6.152;2022-11-15T10:46:19;14.00;67.70
33271;DHT22;53180;51.344;6.152;2022-11-15T10:49:16;13.90;66.70
33271;DHT22;53180;51.344;6.152;2022-11-15T10:51:47;13.90;67.80
33271;DHT22;53180;51.344;6.152;2022-11-15T10:54:21;14.00;65.80
33271;DHT22;53180;51.344;6.152;2022-11-15T10:56:54;13.90;67.60
33271;DHT22;53180;51.344;6.152;2022-11-15T10:59:27;13.90;67.10
33271;DHT22;53180;51.344;6.152;2022-11-15T11:02:29;14.00;67.10
33271;DHT22;53180;51.344;6.152;2022-11-15T11:05:00;14.00;65.20
33271;DHT22;53180;51.344;6.152;2022-11-15T11:07:31;13.90;66.20
33271;DHT22;53180;51.344;6.152;2022-11-15T11:10:04;13.60;64.20
33271;DHT22;53180;51.344;6.152;2022-11-15T11:13:25;13.50;66.80
33271;DHT22;53180;51.344;6.152;2022-11-15T11:15:58;13.40;66.30
33271;DHT22;53180;51.344;6.152;2022-11-15T11:18:37;13.40;67.50
33271;DHT22;53180;51.344;6.152;2022-11-15T11:21:13;13.50;68.30
33271;DHT22;53180;51.344;6.152;2022-11-15T11:23:50;13.50;67.20
33271;DHT22;53180;51.344;6.152;2022-11-15T11:26:38;13.60;66.10
33271;DHT22;53180;51.344;6.152;2022-11-15T11:29:24;13.70;66.30
33271;DHT22;53180;51.344;6.152;2022-11-15T11:32:03;13.80;67.50
33271;DHT22;53180;51.344;6.152;2022-11-15T11:34:47;13.80;66.20
33271;DHT22;53180;51.344;6.152;2022-11-15T11:37:26;13.70;64.40
33271;DHT22;53180;51.344;6.152;2022-11-15T11:40:10;13.70;63.80
33271;DHT22;53180;51.344;6.152;2022-11-15T11:42:50;13.70;64.00
33271;DHT22;53180;51.344;6.152;2022-11-15T11:45:48;13.80;63.20
33271;DHT22;53180;51.344;6.152;2022-11-15T11:48:41;13.90;64.20
33271;DHT22;53180;51.344;6.152;2022-11-15T11:51:16;14.00;63.80
33271;DHT22;53180;51.344;6.152;2022-11-15T11:53:53;14.00;62.10
33271;DHT22;53180;51.344;6.152;2022-11-15T11:56:27;14.10;61.60
33271;DHT22;53180;51.344;6.152;2022-11-15T11:59:02;13.90;61.70
33271;DHT22;53180;51.344;6.152;2022-11-15T12:01:39;13.80;61.50
33271;DHT22;53180;51.344;6.152;2022-11-15T12:04:13;13.90;61.70
33271;DHT22;53180;51.344;6.152;2022-11-15T12:06:48;14.00;61.40
33271;DHT22;53180;51.344;6.152;2022-11-15T12:09:22;14.00;60.30
33271;DHT22;53180;51.344;6.152;2022-11-15T12:12:05;14.00;60.20
33271;DHT22;53180;51.344;6.152;2022-11-15T12:14:42;13.90;60.10
33271;DHT22;53180;51.344;6.152;2022-11-15T12:17:17;13.80;60.60
33271;DHT22;53180;51.344;6.152;2022-11-15T12:19:51;13.90;60.20
33271;DHT22;53180;51.344;6.152;2022-11-15T12:22:22;13.90;60.60
33271;DHT22;53180;51.344;6.152;2022-11-15T12:24:56;14.00;59.20
33271;DHT22;53180;51.344;6.152;2022-11-15T12:27:32;14.00;60.40
33271;DHT22;53180;51.344;6.152;2022-11-15T12:30:07;14.00;59.80
33271;DHT22;53180;51.344;6.152;2022-11-15T12:32:50;14.00;59.10
33271;DHT22;53180;51.344;6.152;2022-11-15T12:35:24;14.00;59.20
33271;DHT22;53180;51.344;6.152;2022-11-15T12:38:00;14.00;60.00
33271;DHT22;53180;51.344;6.152;2022-11-15T12:40:34;14.00;59.70
33271;DHT22;53180;51.344;6.152;2022-11-15T12:46:20;14.00;60.40
33271;DHT22;53180;51.344;6.152;2022-11-15T12:49:11;14.00;59.50
33271;DHT22;53180;51.344;6.152;2022-11-15T12:52:12;14.00;60.30
33271;DHT22;53180;51.344;6.152;2022-11-15T12:54:57;13.90;59.40
33271;DHT22;53180;51.344;6.152;2022-11-15T12:57:40;13.90;60.00
33271;DHT22;53180;51.344;6.152;2022-11-15T13:00:42;13.80;60.20
33271;DHT22;53180;51.344;6.152;2022-11-15T13:03:23;13.70;60.60
33271;DHT22;53180;51.344;6.152;2022-11-15T13:08:47;13.70;60.80
33271;DHT22;53180;51.344;6.152;2022-11-15T13:11:50;13.70;61.20
33271;DHT22;53180;51.344;6.152;2022-11-15T13:14:47;13.70;61.70
33271;DHT22;53180;51.344;6.152;2022-11-15T13:17:28;13.80;60.20
33271;DHT22;53180;51.344;6.152;2022-11-15T13:20:26;13.80;61.30
33271;DHT22;53180;51.344;6.152;2022-11-15T13:23:06;13.80;61.40
33271;DHT22;53180;51.344;6.152;2022-11-15T13:26:01;13.80;60.90
33271;DHT22;53180;51.344;6.152;2022-11-15T13:28:37;13.80;59.90
33271;DHT22;53180;51.344;6.152;2022-11-15T13:31:25;13.80;59.80
33271;DHT22;53180;51.344;6.152;2022-11-15T13:33:58;13.80;61.60
33271;DHT22;53180;51.344;6.152;2022-11-15T13:36:30;13.80;61.70
33271;DHT22;53180;51.344;6.152;2022-11-15T13:39:04;13.70;61.90
33271;DHT22;53180;51.344;6.152;2022-11-15T13:41:35;13.70;61.00
33271;DHT22;53180;51.344;6.152;2022-11-15T13:44:05;13.70;62.00
33271;DHT22;53180;51.344;6.152;2022-11-15T13:46:47;13.70;62.30
33271;DHT22;53180;51.344;6.152;2022-11-15T13:49:16;13.70;62.20
33271;DHT22;53180;51.344;6.152;2022-11-15T13:51:47;13.60;63.10
33271;DHT22;53180;51.344;6.152;2022-11-15T13:54:20;13.60;63.20
33271;DHT22;53180;51.344;6.152;2022-11-15T13:56:54;13.60;63.90
33271;DHT22;53180;51.344;6.152;2022-11-15T13:59:26;13.60;63.50
33271;DHT22;53180;51.344;6.152;2022-11-15T14:01:57;13.60;64.00
33271;DHT22;53180;51.344;6.152;2022-11-15T14:04:29;13.60;63.00
33271;DHT22;53180;51.344;6.152;2022-11-15T14:07:01;13.70;64.00
33271;DHT22;53180;51.344;6.152;2022-11-15T14:09:36;13.60;63.70
33271;DHT22;53180;51.344;6.152;2022-11-15T14:12:26;13.60;63.00
33271;DHT22;53180;51.344;6.152;2022-11-15T14:14:59;13.60;63.20
33271;DHT22;53180;51.344;6.152;2022-11-15T14:17:37;13.60;63.50
33271;DHT22;53180;51.344;6.152;2022-11-15T14:20:30;13.60;64.10
33271;DHT22;53180;51.344;6.152;2022-11-15T14:23:01;13.50;64.70
33271;DHT22;53180;51.344;6.152;2022-11-15T14:25:32;13.50;65.30
33271;DHT22;53180;51.344;6.152;2022-11-15T14:28:14;13.50;65.40
33271;DHT22;53180;51.344;6.152;2022-11-15T14:30:44;13.50;66.20
33271;DHT22;53180;51.344;6.152;2022-11-15T14:33:22;13.50;65.80
33271;DHT22;53180;51.344;6.152;2022-11-15T14:35:52;13.50;66.40
33271;DHT22;53180;51.344;6.152;2022-11-15T14:38:21;13.50;67.50
33271;DHT22;53180;51.344;6.152;2022-11-15T14:40:51;13.40;67.30
33271;DHT22;53180;51.344;6.152;2022-11-15T14:43:20;13.50;67.50
33271;DHT22;53180;51.344;6.152;2022-11-15T14:45:49;13.40;67.80
33271;DHT22;53180;51.344;6.152;2022-11-15T14:48:17;13.40;67.80
33271;DHT22;53180;51.344;6.152;2022-11-15T14:50:45;13.50;68.40
33271;DHT22;53180;51.344;6.152;2022-11-15T14:53:16;13.50;68.70
33271;DHT22;53180;51.344;6.152;2022-11-15T14:55:45;13.50;68.80
33271;DHT22;53180;51.344;6.152;2022-11-15T14:58:15;13.40;69.20
33271;DHT22;53180;51.344;6.152;2022-11-15T15:00:43;13.50;69.60
33271;DHT22;53180;51.344;6.152;2022-11-15T15:03:11;13.50;70.00
33271;DHT22;53180;51.344;6.152;2022-11-15T15:05:41;13.50;70.30
33271;DHT22;53180;51.344;6.152;2022-11-15T15:08:10;13.50;70.50
33271;DHT22;53180;51.344;6.152;2022-11-15T15:10:41;13.50;70.80
33271;DHT22;53180;51.344;6.152;2022-11-15T15:13:17;13.50;71.00
33271;DHT22;53180;51.344;6.152;2022-11-15T15:15:47;13.50;71.20
33271;DHT22;53180;51.344;6.152;2022-11-15T15:18:16;13.50;71.40
33271;DHT22;53180;51.344;6.152;2022-11-15T15:20:56;13.50;71.50
33271;DHT22;53180;51.344;6.152;2022-11-15T15:23:26;13.50;71.90
33271;DHT22;53180;51.344;6.152;2022-11-15T15:25:57;13.50;71.90
33271;DHT22;53180;51.344;6.152;2022-11-15T15:28:27;13.50;72.00
33271;DHT22;53180;51.344;6.152;2022-11-15T15:31:00;13.50;72.10
33271;DHT22;53180;51.344;6.152;2022-11-15T15:33:29;13.50;72.00
33271;DHT22;53180;51.344;6.152;2022-11-15T15:35:57;13.50;72.10
33271;DHT22;53180;51.344;6.152;2022-11-15T15:38:25;13.50;72.20
33271;DHT22;53180;51.344;6.152;2022-11-15T15:40:54;13.50;72.70
33271;DHT22;53180;51.344;6.152;2022-11-15T15:43:22;13.50;72.60
33271;DHT22;53180;51.344;6.152;2022-11-15T15:45:52;13.50;72.60
33271;DHT22;53180;51.344;6.152;2022-11-15T15:48:20;13.50;72.80
33271;DHT22;53180;51.344;6.152;2022-11-15T15:50:49;13.50;72.80
33271;DHT22;53180;51.344;6.152;2022-11-15T15:53:17;13.50;72.90
33271;DHT22;53180;51.344;6.152;2022-11-15T15:55:45;13.50;73.20
33271;DHT22;53180;51.344;6.152;2022-11-15T15:58:14;13.40;73.30
33271;DHT22;53180;51.344;6.152;2022-11-15T16:00:42;13.40;73.30
33271;DHT22;53180;51.344;6.152;2022-11-15T16:03:12;13.40;73.40
33271;DHT22;53180;51.344;6.152;2022-11-15T16:05:40;13.40;73.30
33271;DHT22;53180;51.344;6.152;2022-11-15T16:08:16;13.40;73.40
33271;DHT22;53180;51.344;6.152;2022-11-15T16:10:46;13.40;73.40
33271;DHT22;53180;51.344;6.152;2022-11-15T16:13:15;13.40;73.20
33271;DHT22;53180;51.344;6.152;2022-11-15T16:15:44;13.40;73.50
33271;DHT22;53180;51.344;6.152;2022-11-15T16:18:21;13.40;73.40
33271;DHT22;53180;51.344;6.152;2022-11-15T16:20:50;13.50;73.60
33271;DHT22;53180;51.344;6.152;2022-11-15T16:23:23;13.50;73.70
33271;DHT22;53180;51.344;6.152;2022-11-15T16:25:52;13.40;73.70
33271;DHT22;53180;51.344;6.152;2022-11-15T16:28:27;13.40;73.80
33271;DHT22;53180;51.344;6.152;2022-11-15T16:31:01;13.40;74.00
33271;DHT22;53180;51.344;6.152;2022-11-15T16:33:32;13.40;74.20
33271;DHT22;53180;51.344;6.152;2022-11-15T16:36:00;13.30;74.10